Time;durP1;ratioP1;P1;durP2;ratioP2;P2;SDS_P1;SDS_P2;PMS_P1;PMS_P2;Temp;Humidity;BMP_temperature;BMP_pressure;BME280_temperature;BME280_humidity;BME280_pressure;Samples;Min_cycle;Max_cycle;Signal;HPM_P1;HPM_P2
2020/12/11 00:01:36;;;;;;;29.33;16.30;;;;;;;0.56;77.72;99960.03;5067291;28;20040;-72
2020/12/11 00:04:02;;;;;;;28.75;16.13;;;;;;;0.59;77.37;99951.53;5071262;28;20078;-72
2020/12/11 00:06:28;;;;;;;31.27;16.92;;;;;;;0.57;77.12;99940.41;5071643;28;20071;-72
2020/12/11 00:08:54;;;;;;;28.27;15.77;;;;;;;0.52;77.26;99937.81;5070919;28;20049;-72
2020/12/11 00:11:26;;;;;;;30.65;17.38;;;;;;;0.65;76.93;99927.69;5053336;28;20442;-72
2020/12/11 00:13:53;;;;;;;29.88;15.07;;;;;;;0.75;76.94;99916.66;5068953;28;20106;-72
2020/12/11 00:16:20;;;;;;;29.33;16.50;;;;;;;0.61;77.44;99919.97;5055858;28;20124;-73
2020/12/11 00:18:46;;;;;;;29.95;17.25;;;;;;;0.54;76.90;99909.69;5051179;28;20064;-71
2020/12/11 00:21:12;;;;;;;30.92;17.38;;;;;;;0.54;77.56;99900.31;5056502;28;20056;-74
2020/12/11 00:23:38;;;;;;;30.27;17.70;;;;;;;0.54;77.80;99895.19;5071239;28;20083;-72
2020/12/11 00:26:10;;;;;;;33.05;18.02;;;;;;;0.52;78.09;99881.53;5069621;28;20056;-71
2020/12/11 00:28:36;;;;;;;29.55;17.38;;;;;;;0.66;77.45;99878.19;5071165;28;20071;-72
2020/12/11 00:31:03;;;;;;;30.27;17.48;;;;;;;0.67;77.34;99874.78;5070020;28;20671;-72
2020/12/11 00:33:29;;;;;;;30.33;17.27;;;;;;;0.65;77.66;99868.84;5069002;28;20048;-71
2020/12/11 00:35:55;;;;;;;31.52;17.63;;;;;;;0.72;77.19;99857.78;5070426;28;20098;-69
2020/12/11 00:38:21;;;;;;;29.65;16.88;;;;;;;0.75;77.13;99865.47;5070581;28;20053;-72
2020/12/11 00:40:47;;;;;;;27.45;16.67;;;;;;;0.72;76.89;99863.75;5055889;28;20809;-71
2020/12/11 00:43:13;;;;;;;29.42;16.17;;;;;;;0.69;77.65;99861.19;5066599;28;20040;-72
2020/12/11 00:45:40;;;;;;;31.55;17.60;;;;;;;0.73;77.38;99859.50;5065043;28;20044;-72
2020/12/11 00:48:07;;;;;;;29.63;17.17;;;;;;;0.72;77.61;99853.50;5070453;28;20068;-72
2020/12/11 00:50:33;;;;;;;31.23;17.05;;;;;;;0.73;77.35;99849.25;5070600;28;20052;-72
2020/12/11 00:52:59;;;;;;;31.55;16.25;;;;;;;0.79;77.40;99848.44;5069762;28;20049;-71
2020/12/11 00:55:25;;;;;;;27.90;15.93;;;;;;;0.80;77.21;99839.94;5070389;28;20052;-71
2020/12/11 00:57:50;;;;;;;25.25;15.23;;;;;;;0.81;77.75;99831.38;5070680;28;20056;-72
2020/12/11 01:00:18;;;;;;;25.63;15.38;;;;;;;0.78;77.32;99821.97;5067385;28;20036;-71
2020/12/11 01:02:44;;;;;;;23.20;14.48;;;;;;;0.79;77.41;99818.56;5069004;28;20060;-72
2020/12/11 01:05:11;;;;;;;24.95;14.57;;;;;;;0.94;76.77;99822.91;5070907;28;20501;-70
2020/12/11 01:07:37;;;;;;;24.35;15.23;;;;;;;0.88;77.08;99820.34;5068385;28;20049;-72
2020/12/11 01:10:03;;;;;;;25.58;15.18;;;;;;;0.96;76.82;99825.47;5063365;28;20098;-72
2020/12/11 01:12:29;;;;;;;24.05;14.60;;;;;;;1.02;76.75;99820.41;5066847;28;20109;-72
2020/12/11 01:14:55;;;;;;;25.98;15.57;;;;;;;0.97;76.71;99829.75;5064375;28;20452;-72
2020/12/11 01:17:21;;;;;;;25.05;15.43;;;;;;;0.90;76.90;99824.63;5053129;28;20052;-73
2020/12/11 01:19:47;;;;;;;24.10;14.88;;;;;;;0.95;77.13;99819.53;5059301;28;20037;-73
2020/12/11 01:22:14;;;;;;;23.27;14.20;;;;;;;0.98;76.30;99823.78;5064329;28;20833;-73
2020/12/11 01:24:40;;;;;;;22.88;14.52;;;;;;;0.94;76.79;99815.25;5067577;28;20052;-72
2020/12/11 01:27:06;;;;;;;23.23;14.55;;;;;;;0.91;77.02;99816.09;5051586;28;20509;-71
2020/12/11 01:29:32;;;;;;;23.67;14.85;;;;;;;0.83;77.18;99811.75;5070217;28;20056;-72
2020/12/11 01:31:59;;;;;;;23.08;14.20;;;;;;;0.91;77.20;99810.09;5051194;28;20478;-72
2020/12/11 01:34:26;;;;;;;24.90;14.23;;;;;;;0.88;76.91;99808.38;5058910;28;20056;-72
2020/12/11 01:36:51;;;;;;;24.70;15.13;;;;;;;0.98;76.72;99805.88;5071030;28;20044;-71
2020/12/11 01:39:18;;;;;;;23.08;14.15;;;;;;;0.95;77.28;99793.06;5067266;28;20549;-72
2020/12/11 01:41:50;;;;;;;22.13;13.93;;;;;;;0.98;76.90;99790.50;5053986;28;20045;-71
2020/12/11 01:44:17;;;;;;;22.58;13.50;;;;;;;1.08;76.66;99779.44;5051003;28;20060;-73
2020/12/11 01:46:44;;;;;;;23.92;14.60;;;;;;;1.08;76.49;99769.22;5071521;28;20040;-72
2020/12/11 01:49:11;;;;;;;25.27;14.90;;;;;;;0.99;77.06;99772.59;5073109;28;20418;-71
2020/12/11 01:51:38;;;;;;;25.90;14.68;;;;;;;1.07;76.61;99760.69;5073119;28;20055;-72
2020/12/11 01:54:05;;;;;;;23.05;14.70;;;;;;;0.90;77.22;99758.03;5074255;28;20501;-71
2020/12/11 01:56:33;;;;;;;24.70;14.90;;;;;;;1.00;76.81;99748.69;5074570;28;20053;-71
2020/12/11 01:59:01;;;;;;;22.50;14.77;;;;;;;0.98;77.30;99736.72;5074647;28;20097;-73
2020/12/11 02:01:28;;;;;;;24.33;14.50;;;;;;;1.03;76.67;99729.94;5058033;28;20526;-72
2020/12/11 02:03:54;;;;;;;23.23;14.93;;;;;;;0.89;77.26;99735.00;5054857;28;20060;-72
2020/12/11 02:06:20;;;;;;;25.08;15.63;;;;;;;0.97;77.31;99724.78;5055107;28;20049;-72
2020/12/11 02:08:47;;;;;;;23.45;15.15;;;;;;;1.00;77.06;99714.56;5063763;28;20052;-71
2020/12/11 02:11:17;;;;;;;22.60;13.85;;;;;;;1.09;76.95;99709.47;5071161;28;20052;-71
2020/12/11 02:13:44;;;;;;;23.83;14.60;;;;;;;1.11;76.44;99706.88;5074715;28;20076;-70
2020/12/11 02:16:10;;;;;;;24.98;15.07;;;;;;;1.00;76.77;99696.63;5074757;28;20048;-72
2020/12/11 02:18:37;;;;;;;27.10;16.05;;;;;;;1.00;77.24;99688.94;5074645;28;20054;-72
2020/12/11 02:21:02;;;;;;;23.80;13.45;;;;;;;1.06;76.77;99691.50;5068727;28;20052;-73
2020/12/11 02:23:29;;;;;;;28.95;15.27;;;;;;;0.92;76.76;99684.66;5074522;28;20051;-73
2020/12/11 02:25:55;;;;;;;22.73;14.52;;;;;;;0.92;76.77;99682.09;5074088;28;20506;-72
2020/12/11 02:28:21;;;;;;;26.73;14.25;;;;;;;0.94;76.78;99689.78;5074187;28;20135;-72
2020/12/11 02:30:47;;;;;;;24.55;15.18;;;;;;;0.90;77.00;99677.81;5069103;28;20498;-73
2020/12/11 02:33:13;;;;;;;23.80;15.15;;;;;;;0.97;77.26;99674.44;5072997;28;20481;-71
2020/12/11 02:35:41;;;;;;;23.50;14.38;;;;;;;0.95;77.01;99671.00;5074753;28;20099;-72
2020/12/11 02:38:07;;;;;;;24.15;15.18;;;;;;;0.93;77.11;99665.03;5073991;28;20072;-72
2020/12/11 02:40:36;;;;;;;23.70;14.57;;;;;;;0.96;76.64;99661.59;5072148;28;20165;-72
2020/12/11 02:43:02;;;;;;;25.83;15.63;;;;;;;0.96;76.87;99657.38;5073656;28;20610;-72
2020/12/11 02:45:28;;;;;;;26.73;15.70;;;;;;;0.86;77.05;99656.47;5066115;28;20056;-72
2020/12/11 02:47:54;;;;;;;24.35;15.55;;;;;;;0.85;77.21;99651.34;5061803;28;20052;-71
2020/12/11 02:50:20;;;;;;;24.60;14.95;;;;;;;0.86;77.13;99653.06;5082908;28;20044;-71
2020/12/11 02:52:45;;;;;;;24.58;14.93;;;;;;;0.87;76.80;99658.19;5069457;28;20494;-72
2020/12/11 02:55:13;;;;;;;28.50;16.20;;;;;;;0.74;77.17;99654.72;5071916;28;20052;-70
2020/12/11 02:57:40;;;;;;;24.40;15.63;;;;;;;0.73;77.57;99663.25;5072648;23;20185;-67
2020/12/11 03:00:06;;;;;;;25.60;15.20;;;;;;;0.83;77.23;99661.59;5042987;28;20052;-66
2020/12/11 03:02:32;;;;;;;24.20;15.60;;;;;;;0.88;77.15;99654.78;5034231;28;20049;-68
2020/12/11 03:04:58;;;;;;;28.08;16.20;;;;;;;0.80;77.51;99656.47;5052834;28;20064;-67
2020/12/11 03:07:23;;;;;;;25.27;14.90;;;;;;;0.85;76.96;99653.91;5068172;28;20055;-67
2020/12/11 03:09:49;;;;;;;24.88;15.38;;;;;;;0.87;77.20;99654.78;5070989;28;20044;-66
2020/12/11 03:12:16;;;;;;;23.80;15.48;;;;;;;0.86;76.88;99653.91;5073709;28;20402;-66
2020/12/11 03:14:42;;;;;;;25.15;15.93;;;;;;;0.79;77.11;99649.63;5073722;28;20072;-67
2020/12/11 03:17:09;;;;;;;25.75;16.25;;;;;;;0.73;77.35;99645.34;5072726;28;20056;-66
2020/12/11 03:19:35;;;;;;;22.25;13.90;;;;;;;0.78;77.39;99647.91;5072601;28;20052;-67
2020/12/11 03:22:01;;;;;;;23.70;14.18;;;;;;;0.83;76.83;99648.81;5073238;28;20418;-67
2020/12/11 03:24:26;;;;;;;25.05;15.35;;;;;;;0.76;77.13;99637.69;5073732;28;20052;-67
2020/12/11 03:26:52;;;;;;;23.58;14.48;;;;;;;0.82;77.25;99634.28;5072773;28;20059;-68
2020/12/11 03:29:18;;;;;;;26.35;15.40;;;;;;;0.81;76.90;99632.56;5068142;28;20053;-67
2020/12/11 03:31:45;;;;;;;23.45;14.45;;;;;;;0.79;77.30;99616.34;5073515;28;20051;-66
2020/12/11 03:34:11;;;;;;;23.50;14.85;;;;;;;0.79;77.55;99629.16;5072408;28;20052;-68
2020/12/11 03:36:37;;;;;;;23.52;14.75;;;;;;;0.86;76.99;99624.91;5073252;28;20138;-67
2020/12/11 03:39:03;;;;;;;22.02;13.57;;;;;;;0.85;77.06;99629.16;5072221;28;20057;-67
2020/12/11 03:41:29;;;;;;;22.15;14.18;;;;;;;0.79;77.20;99626.59;5062457;28;20135;-67
2020/12/11 03:43:55;;;;;;;24.20;15.13;;;;;;;0.78;77.28;99627.44;5073123;28;20597;-67
2020/12/11 03:46:21;;;;;;;22.80;14.25;;;;;;;0.91;76.92;99624.06;5072396;28;20114;-66
2020/12/11 03:48:50;;;;;;;21.77;13.55;;;;;;;0.96;76.82;99616.41;5072126;28;20138;-67
2020/12/11 03:51:17;;;;;;;23.65;14.60;;;;;;;0.98;76.47;99613.81;5072779;28;20086;-68
2020/12/11 03:53:44;;;;;;;20.70;13.07;;;;;;;1.04;76.47;99616.41;5072716;28;20489;-68
2020/12/11 03:56:12;;;;;;;22.40;14.27;;;;;;;1.10;76.21;99606.16;5055660;28;20135;-68
2020/12/11 03:58:39;;;;;;;20.80;13.18;;;;;;;1.04;76.47;99601.06;5052795;28;20068;-68
2020/12/11 04:01:05;;;;;;;21.30;13.27;;;;;;;1.00;76.45;99596.75;5060757;28;20592;-67
2020/12/11 04:03:31;;;;;;;24.77;13.75;;;;;;;1.03;76.69;99591.66;5072975;28;20055;-68
2020/12/11 04:05:57;;;;;;;23.80;14.43;;;;;;;1.06;75.97;99587.38;5072504;28;20068;-68
2020/12/11 04:08:23;;;;;;;22.95;12.70;;;;;;;1.05;76.44;99584.81;5072257;28;20398;-67
2020/12/11 04:10:49;;;;;;;21.90;12.77;;;;;;;1.12;76.38;99586.53;5068827;28;20053;-68
2020/12/11 04:13:15;;;;;;;24.25;14.63;;;;;;;1.06;76.50;99583.97;5071911;28;20056;-68
2020/12/11 04:15:41;;;;;;;23.67;13.73;;;;;;;0.93;76.69;99576.28;5071432;28;20063;-68
2020/12/11 04:18:07;;;;;;;24.33;14.20;;;;;;;0.94;76.94;99569.44;5072208;28;20544;-67
2020/12/11 04:20:33;;;;;;;19.75;12.43;;;;;;;1.11;76.31;99573.72;5070113;28;20055;-67
2020/12/11 04:22:59;;;;;;;23.02;13.75;;;;;;;1.07;75.94;99572.88;5063921;28;20048;-68
2020/12/11 04:25:25;;;;;;;21.10;13.02;;;;;;;1.14;75.98;99571.16;5060055;28;20049;-68
2020/12/11 04:27:51;;;;;;;19.80;12.52;;;;;;;1.20;75.80;99566.03;5060324;28;20045;-67
2020/12/11 04:30:17;;;;;;;19.30;12.43;;;;;;;1.26;76.09;99560.06;5066529;28;20044;-67
2020/12/11 04:32:43;;;;;;;21.05;13.13;;;;;;;1.26;75.62;99560.94;5071128;28;20506;-68
2020/12/11 04:35:09;;;;;;;21.27;13.32;;;;;;;1.23;75.44;99564.34;5070643;28;20048;-67
2020/12/11 04:37:35;;;;;;;23.08;14.18;;;;;;;1.19;75.67;99547.25;5070959;28;20049;-68
2020/12/11 04:40:02;;;;;;;19.83;12.73;;;;;;;1.10;76.33;99544.72;5071249;28;20513;-67
2020/12/11 04:42:35;;;;;;;21.25;12.60;;;;;;;1.21;75.66;99547.25;5062468;28;20048;-68
2020/12/11 04:45:01;;;;;;;19.77;12.02;;;;;;;1.20;75.53;99525.94;5068937;28;20036;-67
2020/12/11 04:47:27;;;;;;;22.25;13.55;;;;;;;1.13;75.85;99511.41;5068509;28;20049;-67
2020/12/11 04:49:54;;;;;;;21.70;13.50;;;;;;;1.11;75.84;99510.56;5072668;28;20082;-68
2020/12/11 04:52:25;;;;;;;20.58;13.35;;;;;;;1.14;75.93;99510.56;5068918;28;20048;-68
2020/12/11 04:54:58;;;;;;;21.20;12.82;;;;;;;1.01;76.13;99494.34;5066276;28;20044;-69
2020/12/11 04:57:31;;;;;;;20.27;13.55;;;;;;;1.04;76.04;99485.81;5067648;28;20101;-67
2020/12/11 04:59:57;;;;;;;19.60;11.80;;;;;;;1.04;76.11;99486.66;5068096;28;20051;-67
2020/12/11 05:02:26;;;;;;;21.17;12.68;;;;;;;1.02;75.87;99497.78;5054306;28;20078;-62
2020/12/11 05:04:53;;;;;;;21.38;13.30;;;;;;;0.92;76.17;99482.41;5064266;28;20052;-68
2020/12/11 05:07:19;;;;;;;19.20;12.77;;;;;;;0.95;76.61;99470.47;5070484;28;20053;-67
2020/12/11 05:09:54;;;;;;;21.58;13.70;;;;;;;0.96;75.93;99464.47;5072123;28;20040;-67
2020/12/11 05:12:20;;;;;;;21.63;12.88;;;;;;;0.98;75.96;99463.63;5071155;28;20053;-66
2020/12/11 05:14:48;;;;;;;22.50;14.20;;;;;;;0.93;75.97;99468.75;5065545;28;20099;-67
2020/12/11 05:17:14;;;;;;;19.75;12.45;;;;;;;1.03;76.10;99453.38;5050985;28;20068;-67
2020/12/11 05:19:51;;;;;;;21.45;12.82;;;;;;;0.85;76.38;99449.13;5064242;28;20516;-66
2020/12/11 05:22:18;;;;;;;23.48;13.15;;;;;;;0.93;76.34;99461.06;5069893;28;20569;-67
2020/12/11 05:24:46;;;;;;;19.75;12.15;;;;;;;0.90;76.09;99437.16;5068443;28;20044;-67
2020/12/11 05:27:35;;;;;;;22.42;12.55;;;;;;;0.88;76.73;99438.88;5059202;28;20060;-67
2020/12/11 05:30:21;;;;;;;19.80;11.38;;;;;;;0.95;76.13;99437.19;5055966;28;20053;-66
2020/12/11 05:32:48;;;;;;;18.88;11.63;;;;;;;0.89;76.46;99409.88;5065242;28;20048;-66
2020/12/11 05:35:24;;;;;;;22.17;13.98;;;;;;;0.93;75.81;99415.00;5070644;28;20591;-68
2020/12/11 05:37:52;;;;;;;20.67;12.65;;;;;;;0.92;75.95;99403.03;5065912;28;20135;-67
2020/12/11 05:40:19;;;;;;;20.13;12.65;;;;;;;0.92;76.52;99385.13;5064757;28;20410;-69
2020/12/11 05:43:04;;;;;;;20.45;12.85;;;;;;;0.86;76.63;99380.00;5062347;28;20094;-67
2020/12/11 05:45:34;;;;;;;26.15;13.88;;;;;;;0.88;76.32;99380.00;5062642;28;20043;-68
2020/12/11 05:48:01;;;;;;;20.85;13.60;;;;;;;0.88;76.52;99370.63;5071599;28;20044;-67
2020/12/11 05:50:26;;;;;;;26.48;15.63;;;;;;;0.83;76.56;99363.78;5081361;28;20052;-66
2020/12/11 05:52:53;;;;;;;25.30;14.90;;;;;;;0.93;76.65;99357.81;5077866;28;20595;-66
2020/12/11 05:55:21;;;;;;;24.63;15.27;;;;;;;0.92;76.48;99348.41;5071517;28;20513;-65
2020/12/11 05:57:51;;;;;;;22.48;14.10;;;;;;;0.89;76.38;99343.31;5068699;28;20110;-67
2020/12/11 06:00:18;;;;;;;27.60;14.85;;;;;;;0.92;76.32;99344.16;5053401;28;20052;-65
2020/12/11 06:02:47;;;;;;;23.10;14.18;;;;;;;0.90;76.04;99334.75;5059804;28;20044;-66
2020/12/11 06:05:15;;;;;;;24.77;13.20;;;;;;;0.90;76.50;99330.50;5065792;28;20083;-67
2020/12/11 06:07:43;;;;;;;23.48;13.15;;;;;;;0.77;76.65;99326.25;5067127;28;20561;-66
2020/12/11 06:10:09;;;;;;;21.20;12.27;;;;;;;0.76;76.91;99327.97;5070336;28;20475;-67
2020/12/11 06:12:35;;;;;;;20.65;12.52;;;;;;;0.81;76.71;99315.19;5070518;28;20472;-66
2020/12/11 06:15:08;;;;;;;18.67;11.75;;;;;;;0.80;76.98;99312.63;5070304;28;20045;-67
2020/12/11 06:17:37;;;;;;;20.63;10.95;;;;;;;0.85;76.76;99316.84;5069382;28;20056;-65
2020/12/11 06:20:07;;;;;;;18.17;10.98;;;;;;;0.90;75.96;99307.47;5069929;28;20068;-66
2020/12/11 06:22:34;;;;;;;20.77;12.20;;;;;;;0.84;76.23;99304.94;5069214;28;20125;-66
2020/12/11 06:25:24;;;;;;;17.83;11.13;;;;;;;0.87;76.18;99298.94;5068412;28;20072;-66
2020/12/11 06:27:50;;;;;;;19.50;12.00;;;;;;;0.85;76.46;99298.09;5069067;28;20131;-66
2020/12/11 06:30:27;;;;;;;22.77;12.15;;;;;;;0.91;76.44;99293.81;5059917;28;20067;-66
2020/12/11 06:32:54;;;;;;;21.10;11.93;;;;;;;0.89;75.86;99298.09;5070107;28;20052;-67
2020/12/11 06:35:21;;;;;;;18.75;11.48;;;;;;;0.89;76.37;99276.75;5073390;28;20044;-66
2020/12/11 06:37:47;;;;;;;17.70;11.55;;;;;;;0.90;76.13;99276.75;5064177;28;20048;-67
2020/12/11 06:40:13;;;;;;;21.30;11.90;;;;;;;0.96;75.90;99275.00;5073371;28;20044;-66
2020/12/11 06:42:42;;;;;;;22.13;12.73;;;;;;;0.85;76.31;99275.91;5072877;28;20064;-66
2020/12/11 06:45:22;;;;;;;19.80;12.52;;;;;;;0.82;76.35;99270.81;5063576;28;20056;-66
2020/12/11 06:47:53;;;;;;;20.88;12.50;;;;;;;0.88;76.34;99268.22;5053186;28;20059;-67
2020/12/11 06:50:22;;;;;;;19.45;11.85;;;;;;;0.90;76.46;99260.53;5053354;28;20387;-66
2020/12/11 06:52:48;;;;;;;19.02;11.95;;;;;;;0.93;76.47;99258.81;5064294;28;20041;-66
2020/12/11 06:55:14;;;;;;;24.08;14.15;;;;;;;0.82;76.58;99264.81;5054652;28;20048;-66
2020/12/11 06:57:43;;;;;;;24.58;15.13;;;;;;;0.81;76.62;99269.09;5064003;28;20049;-64
2020/12/11 07:00:26;;;;;;;22.95;13.77;;;;;;;0.86;76.24;99264.81;5071284;28;20052;-67
2020/12/11 07:03:21;;;;;;;23.65;13.77;;;;;;;0.86;76.27;99262.25;5053261;28;20057;-67
2020/12/11 07:05:57;;;;;;;25.95;13.57;;;;;;;0.89;76.47;99251.16;5072708;28;20052;-67
2020/12/11 07:08:23;;;;;;;23.70;14.50;;;;;;;0.92;76.44;99253.69;5072921;28;20532;-67
2020/12/11 07:10:49;;;;;;;23.05;13.52;;;;;;;0.95;76.28;99257.97;5061604;28;20148;-66
2020/12/11 07:13:15;;;;;;;21.98;13.75;;;;;;;0.96;76.09;99259.66;5072881;28;20075;-65
2020/12/11 07:15:41;;;;;;;21.63;13.50;;;;;;;0.90;76.39;99263.94;5068224;28;20044;-62
2020/12/11 07:18:13;;;;;;;22.83;13.73;;;;;;;1.05;76.31;99249.38;5071125;28;20150;-66
2020/12/11 07:20:47;;;;;;;22.95;13.65;;;;;;;1.12;76.06;99245.06;5072871;28;20052;-65
2020/12/11 07:23:15;;;;;;;21.13;12.25;;;;;;;1.07;75.72;99242.53;5072086;28;20049;-66
2020/12/11 07:25:41;;;;;;;19.27;12.73;;;;;;;1.13;75.64;99233.97;5072648;28;20057;-66
2020/12/11 07:28:07;;;;;;;21.73;13.13;;;;;;;1.13;75.32;99245.09;5072249;28;20182;-65
2020/12/11 07:30:33;;;;;;;23.63;12.85;;;;;;;1.20;75.52;99239.06;5072711;28;20072;-65
2020/12/11 07:33:00;;;;;;;21.17;13.48;;;;;;;1.10;75.76;99237.41;5072099;28;20086;-66
2020/12/11 07:35:26;;;;;;;20.92;12.55;;;;;;;1.24;75.66;99229.66;5072289;28;20044;-67
2020/12/11 07:37:53;;;;;;;21.58;12.88;;;;;;;1.31;75.50;99231.31;5071742;28;20315;-66
2020/12/11 07:40:21;;;;;;;20.95;13.15;;;;;;;1.30;75.30;99226.19;5072343;28;20063;-67
2020/12/11 07:42:48;;;;;;;20.42;11.50;;;;;;;1.40;75.11;99217.59;5072296;28;20051;-67
2020/12/11 07:45:25;;;;;;;21.73;13.13;;;;;;;1.40;74.71;99227.84;5064269;28;20098;-67
2020/12/11 07:47:52;;;;;;;21.45;13.18;;;;;;;1.48;74.66;99227.81;5067564;28;20052;-66
2020/12/11 07:50:21;;;;;;;24.33;13.65;;;;;;;1.35;75.24;99230.44;5071764;28;20486;-67
2020/12/11 07:52:47;;;;;;;22.30;13.55;;;;;;;1.31;75.45;99228.75;5072515;28;20056;-69
2020/12/11 07:55:13;;;;;;;20.70;12.93;;;;;;;1.34;75.09;99231.28;5072454;28;20053;-66
2020/12/11 07:57:40;;;;;;;18.98;12.07;;;;;;;1.38;75.19;99233.00;5071625;28;20529;-66
2020/12/11 08:00:07;;;;;;;19.23;12.02;;;;;;;1.42;74.75;99230.38;5067128;28;20053;-67
2020/12/11 08:02:35;;;;;;;18.73;11.75;;;;;;;1.48;74.81;99231.22;5063880;28;20047;-67
2020/12/11 08:05:04;;;;;;;18.95;12.10;;;;;;;1.47;74.72;99234.63;5071190;28;20041;-67
2020/12/11 08:07:31;;;;;;;18.33;11.40;;;;;;;1.64;74.66;99231.13;5071488;28;20053;-67
2020/12/11 08:10:07;;;;;;;19.83;11.93;;;;;;;1.62;74.65;99237.97;5067371;28;20045;-66
2020/12/11 08:12:33;;;;;;;22.10;11.90;;;;;;;1.73;73.88;99223.38;5051432;28;20103;-67
2020/12/11 08:14:59;;;;;;;19.48;12.38;;;;;;;1.80;73.93;99225.00;5059932;28;20040;-66
2020/12/11 08:17:29;;;;;;;18.42;11.38;;;;;;;1.72;74.14;99231.91;5070643;28;20049;-68
2020/12/11 08:19:59;;;;;;;20.67;12.80;;;;;;;1.78;74.09;99224.16;5071214;28;20040;-66
2020/12/11 08:22:31;;;;;;;17.58;11.23;;;;;;;1.82;73.97;99222.41;5071512;28;20048;-67
2020/12/11 08:24:57;;;;;;;18.55;12.18;;;;;;;1.81;74.07;99229.28;5065838;28;20044;-65
2020/12/11 08:27:24;;;;;;;21.58;12.50;;;;;;;1.90;73.49;99223.19;5064910;28;20041;-67
2020/12/11 08:30:04;;;;;;;17.70;10.80;;;;;;;1.99;73.42;99227.41;5064364;28;20053;-65
2020/12/11 09:02:01;;;;;;;18.42;11.35;;;;;;;2.40;72.47;99192.81;5059982;28;20081;-67
2020/12/11 09:04:27;;;;;;;19.85;11.02;;;;;;;2.41;73.08;99188.53;5068350;28;20050;-68
2020/12/11 09:06:53;;;;;;;20.23;10.57;;;;;;;2.48;72.80;99188.44;5064356;28;20056;-68
2020/12/11 09:09:19;;;;;;;17.42;11.02;;;;;;;2.52;73.16;99180.72;5050596;28;20053;-68
2020/12/11 09:11:45;;;;;;;17.05;10.95;;;;;;;2.55;73.04;99185.78;5043355;28;20148;-68
2020/12/11 09:14:11;;;;;;;17.08;11.57;;;;;;;2.48;72.92;99180.75;5049895;28;20102;-68
2020/12/11 09:16:37;;;;;;;16.73;10.30;;;;;;;2.52;73.43;99183.28;5046755;28;20049;-68
2020/12/11 09:19:04;;;;;;;17.63;11.77;;;;;;;2.56;73.25;99182.38;5030501;28;20104;-68
2020/12/11 09:21:30;;;;;;;19.00;10.32;;;;;;;2.59;72.80;99177.19;5039841;28;20067;-67
2020/12/11 09:23:56;;;;;;;27.63;14.70;;;;;;;2.64;73.19;99172.88;5050191;28;20481;-67
2020/12/11 09:26:23;;;;;;;20.67;11.45;;;;;;;2.71;72.86;99184.75;5048676;28;20434;-68
2020/12/11 09:28:54;;;;;;;17.90;10.30;;;;;;;2.70;72.81;99175.34;5050163;28;20053;-67
2020/12/11 09:31:21;;;;;;;19.63;10.57;;;;;;;2.71;72.49;99168.50;5043093;28;20049;-68
2020/12/11 09:33:47;;;;;;;19.48;10.85;;;;;;;2.80;72.85;99168.38;5040369;28;20057;-68
2020/12/11 09:36:13;;;;;;;16.90;9.00;;;;;;;2.91;72.27;99169.09;5048022;28;20045;-68
2020/12/11 09:38:39;;;;;;;16.80;10.80;;;;;;;2.84;72.37;99157.22;5049983;28;20048;-67
2020/12/11 09:41:07;;;;;;;18.20;11.20;;;;;;;2.84;72.17;99161.50;5048384;28;20602;-68
2020/12/11 09:47:03;;;;;;;17.63;11.35;;;;;;;2.95;72.06;99145.06;4973180;28;20094;-67
2020/12/11 09:49:35;;;;;;;16.75;10.90;;;;;;;2.83;73.07;99145.22;4970690;28;20054;-68
2020/12/11 09:52:17;;;;;;;17.20;11.57;;;;;;;2.82;72.92;99145.25;5030340;28;20089;-67
2020/12/11 09:54:43;;;;;;;16.17;10.05;;;;;;;2.93;72.56;99145.97;5029621;28;20132;-67
2020/12/11 09:57:09;;;;;;;14.35;9.35;;;;;;;3.04;72.23;99136.41;5047442;28;20522;-68
2020/12/11 09:59:37;;;;;;;17.67;10.88;;;;;;;3.00;72.47;99147.56;5049254;28;20118;-68
2020/12/11 10:02:12;;;;;;;18.88;10.90;;;;;;;3.10;71.83;99145.72;5049231;28;20064;-67
2020/12/11 10:04:38;;;;;;;16.52;10.13;;;;;;;3.12;71.41;99141.41;5040415;28;20049;-67
2020/12/11 10:07:05;;;;;;;16.58;10.63;;;;;;;3.08;72.69;99132.06;5050481;28;20052;-68
2020/12/11 10:09:31;;;;;;;17.33;10.45;;;;;;;3.19;72.13;99122.47;5052361;28;20418;-68
2020/12/11 10:12:00;;;;;;;16.02;9.98;;;;;;;3.17;73.45;99128.50;5052690;28;20057;-68
2020/12/11 10:14:30;;;;;;;17.05;9.90;;;;;;;3.12;73.65;99131.13;5053925;28;20049;-68
2020/12/11 10:20:19;;;;;;;15.45;10.10;;;;;;;3.02;75.25;99111.59;5043413;28;20044;-69
2020/12/11 10:22:47;;;;;;;17.10;10.48;;;;;;;3.06;74.64;99116.66;5053265;28;20045;-67
2020/12/11 10:25:13;;;;;;;18.20;11.23;;;;;;;3.05;75.52;99109.81;5053725;28;20053;-67
2020/12/11 10:27:39;;;;;;;18.17;11.48;;;;;;;3.05;75.12;99103.84;5053772;28;20055;-69
2020/12/11 10:30:06;;;;;;;14.52;10.07;;;;;;;3.16;74.84;99106.25;5037367;28;20045;-68
2020/12/11 10:32:32;;;;;;;18.48;11.25;;;;;;;3.16;74.91;99093.38;5052909;28;20115;-67
2020/12/11 10:34:58;;;;;;;16.92;10.68;;;;;;;3.09;75.71;99085.78;5046338;28;20484;-67
2020/12/11 10:37:24;;;;;;;18.17;11.27;;;;;;;3.14;75.48;99074.59;5053056;28;20048;-68
2020/12/11 10:39:51;;;;;;;16.10;10.32;;;;;;;3.26;75.67;99071.81;5049200;28;20132;-68
2020/12/11 10:42:17;;;;;;;17.70;10.07;;;;;;;3.28;74.91;99066.69;5053045;28;20099;-67
2020/12/11 10:44:43;;;;;;;16.50;10.27;;;;;;;3.24;74.67;99076.16;5052444;28;20045;-68
2020/12/11 10:47:09;;;;;;;16.33;9.90;;;;;;;3.21;74.79;99079.59;5052947;28;20045;-67
2020/12/11 10:49:35;;;;;;;15.82;8.85;;;;;;;3.33;73.55;99076.00;5047959;28;20049;-67
2020/12/11 10:52:01;;;;;;;15.60;10.23;;;;;;;3.23;74.68;99070.16;5052576;28;20430;-67
2020/12/11 10:54:27;;;;;;;15.00;10.35;;;;;;;3.29;74.72;99060.66;5052215;28;20182;-67
2020/12/11 10:56:54;;;;;;;14.75;9.40;;;;;;;3.39;74.11;99063.03;5052670;28;20067;-68
2020/12/11 10:59:20;;;;;;;15.70;9.20;;;;;;;3.47;73.59;99049.19;5039657;28;20053;-68
2020/12/11 11:01:46;;;;;;;16.42;9.65;;;;;;;3.47;73.00;99046.63;5034540;28;20714;-68
2020/12/11 11:04:12;;;;;;;16.48;9.60;;;;;;;3.39;73.71;99051.94;5048739;28;20107;-68
2020/12/11 11:06:41;;;;;;;13.85;9.23;;;;;;;3.37;73.86;99049.38;5051622;28;20498;-68
2020/12/11 11:09:18;;;;;;;15.68;9.77;;;;;;;3.45;74.02;99043.22;5048487;28;20053;-67
2020/12/11 11:11:48;;;;;;;16.60;9.77;;;;;;;3.40;73.80;99040.75;5045308;28;20635;-67
2020/12/11 11:14:31;;;;;;;14.82;10.02;;;;;;;3.47;73.73;99044.06;5051055;28;20041;-68
2020/12/11 11:17:26;;;;;;;14.70;9.65;;;;;;;3.56;73.70;99038.75;5052579;28;20481;-69
2020/12/11 11:19:56;;;;;;;15.68;9.98;;;;;;;3.60;73.58;99026.69;5041035;28;20136;-69
2020/12/11 11:22:31;;;;;;;15.85;10.20;;;;;;;3.66;73.06;99024.84;5050918;28;20087;-68
2020/12/11 11:27:44;;;;;;;16.17;10.07;;;;;;;3.63;73.68;99019.78;5040642;28;20584;-67
2020/12/11 11:30:11;;;;;;;14.65;9.40;;;;;;;3.80;72.64;99032.31;5044107;28;20049;-68
2020/12/11 11:32:37;;;;;;;15.02;9.68;;;;;;;3.72;73.42;99024.75;5042056;28;20053;-69
2020/12/11 11:35:04;;;;;;;14.23;9.35;;;;;;;3.77;72.99;99024.66;5044370;28;20056;-69
2020/12/11 11:37:30;;;;;;;18.38;9.93;;;;;;;3.83;72.63;99019.41;5046627;28;20049;-69
2020/12/11 11:39:57;;;;;;;15.48;9.45;;;;;;;3.85;73.62;99017.66;5050180;28;20049;-70
2020/12/11 11:42:23;;;;;;;15.07;8.48;;;;;;;3.92;72.62;99014.94;5049345;28;20048;-69
2020/12/11 11:44:54;;;;;;;17.70;9.73;;;;;;;3.89;73.12;99015.84;5044710;28;20049;-66
2020/12/11 11:47:21;;;;;;;15.68;9.52;;;;;;;3.87;73.26;99015.91;5042347;28;20094;-69
2020/12/11 11:52:34;;;;;;;15.95;9.05;;;;;;;3.82;75.22;99001.44;5043737;28;20206;-68
2020/12/11 11:55:00;;;;;;;19.73;9.90;;;;;;;3.76;76.17;99004.09;5050810;28;20045;-67
2020/12/11 11:57:27;;;;;;;16.65;9.95;;;;;;;3.68;77.25;99010.25;5045114;28;20049;-70
2020/12/11 11:59:53;;;;;;;19.67;10.93;;;;;;;3.62;77.98;99004.38;5046487;28;20197;-68
2020/12/11 12:02:19;;;;;;;15.00;9.68;;;;;;;3.70;77.47;98994.78;5045597;28;20087;-68
2020/12/11 12:04:45;;;;;;;20.27;10.25;;;;;;;3.57;78.41;98994.19;5046141;28;20099;-68
2020/12/11 12:07:11;;;;;;;16.25;9.98;;;;;;;3.60;77.88;98999.28;5045746;28;20049;-68
2020/12/11 12:09:37;;;;;;;17.20;9.80;;;;;;;3.60;78.23;98994.13;5041661;28;20053;-68
2020/12/11 12:12:03;;;;;;;19.25;10.20;;;;;;;3.56;78.29;98984.78;5044370;28;20061;-68